Time,TemperatureF,DewpointF,PressureIn,WindDirection,WindDirectionDegrees,WindSpeedMPH,WindSpeedGustMPH,Humidity,HourlyPrecipIn,Conditions,Clouds,dailyrainin,SolarRadiationWatts/m^2,SoftwareType,DateUTC
2013-03-19 00:00:00,67.9,50.1,29.83,NE,40,6.0,6.0,53,0.00,,,0.00,0,Wunderground v.1.15,2013-03-19 05:00:00,
2013-03-19 00:06:00,67.7,50.5,29.83,NE,41,5.0,12.0,54,0.00,,,0.00,0,Wunderground v.1.15,2013-03-19 05:06:00,
2013-03-19 00:15:00,67.4,50.2,29.82,NE,53,8.0,10.0,54,0.00,,,0.00,0,Wunderground v.1.15,2013-03-19 05:15:00,
2013-03-19 00:20:00,67.2,50.5,29.82,NE,34,6.0,7.0,55,0.00,,,0.00,0,Wunderground v.1.15,2013-03-19 05:20:00,
2013-03-19 00:30:00,67.0,50.3,29.82,NE,49,7.0,11.0,55,0.00,,,0.00,0,Wunderground v.1.15,2013-03-19 05:30:00,
2013-03-19 00:35:00,66.8,50.1,29.82,ENE,61,6.0,11.0,55,0.00,,,0.00,0,Wunderground v.1.15,2013-03-19 05:35:00,
2013-03-19 00:40:00,66.7,50.0,29.82,NE,54,6.0,6.0,55,0.00,,,0.00,0,Wunderground v.1.15,2013-03-19 05:40:00,
2013-03-19 00:45:00,66.5,50.3,29.83,NE,48,6.0,6.0,56,0.00,,,0.00,0,Wunderground v.1.15,2013-03-19 05:45:00,
2013-03-19 00:50:00,66.3,50.1,29.83,ENE,67,6.0,6.0,56,0.00,,,0.00,0,Wunderground v.1.15,2013-03-19 05:50:00,
2013-03-19 00:55:00,66.1,49.9,29.83,NE,39,6.0,7.0,56,0.00,,,0.00,0,Wunderground v.1.15,2013-03-19 05:55:00,
2013-03-19 01:10:00,65.6,49.5,29.83,NE,50,7.0,7.0,56,0.00,,,0.00,0,Wunderground v.1.15,2013-03-19 06:10:00,
2013-03-19 01:15:00,65.3,49.7,29.83,NE,34,6.0,7.0,57,0.00,,,0.00,0,Wunderground v.1.15,2013-03-19 06:15:00,
2013-03-19 01:20:00,65.2,49.6,29.83,NE,56,6.0,12.0,57,0.00,,,0.00,0,Wunderground v.1.15,2013-03-19 06:20:00,
2013-03-19 01:25:00,65.0,49.4,29.83,NE,43,5.0,12.0,57,0.00,,,0.00,0,Wunderground v.1.15,2013-03-19 06:25:00,
2013-03-19 01:30:00,64.7,49.1,29.83,NE,48,5.0,5.0,57,0.00,,,0.00,0,Wunderground v.1.15,2013-03-19 06:30:00,
2013-03-19 01:35:00,64.5,48.9,29.83,NNE,29,6.0,12.0,57,0.00,,,0.00,0,Wunderground v.1.15,2013-03-19 06:35:00,
2013-03-19 01:40:00,64.4,49.3,29.83,NE,46,6.0,6.0,58,0.00,,,0.00,0,Wunderground v.1.15,2013-03-19 06:40:00,
2013-03-19 01:45:00,64.2,49.1,29.83,ENE,65,5.0,6.0,58,0.00,,,0.00,0,Wunderground v.1.15,2013-03-19 06:45:00,
2013-03-19 01:50:00,64.0,48.9,29.83,NE,38,6.0,6.0,58,0.00,,,0.00,0,Wunderground v.1.15,2013-03-19 06:50:00,
2013-03-19 01:55:00,63.9,48.8,29.83,ENE,60,6.0,6.0,58,0.00,,,0.00,0,Wunderground v.1.15,2013-03-19 06:55:00,
2013-03-19 02:00:00,63.7,48.6,29.83,NE,51,4.0,4.0,58,0.00,,,0.00,0,Wunderground v.1.15,2013-03-19 07:00:00,
2013-03-19 02:10:00,63.3,48.7,29.83,NE,44,6.0,6.0,59,0.00,,,0.00,0,Wunderground v.1.15,2013-03-19 07:10:00,
2013-03-19 02:15:00,63.1,48.5,29.83,ENE,61,6.0,6.0,59,0.00,,,0.00,0,Wunderground v.1.15,2013-03-19 07:15:00,
2013-03-19 02:20:00,62.8,48.3,29.83,NE,49,6.0,15.0,59,0.00,,,0.00,0,Wunderground v.1.15,2013-03-19 07:20:00,
2013-03-19 02:25:00,62.6,48.5,29.83,ENE,59,6.0,15.0,60,0.00,,,0.00,0,Wunderground v.1.15,2013-03-19 07:25:00,
2013-03-19 02:30:00,62.3,48.2,29.83,NNE,31,7.0,7.0,60,0.00,,,0.00,0,Wunderground v.1.15,2013-03-19 07:30:00,
2013-03-19 02:35:00,62.1,48.0,29.83,NNE,32,7.0,7.0,60,0.00,,,0.00,0,Wunderground v.1.15,2013-03-19 07:35:00,
2013-03-19 02:45:00,61.8,47.8,29.83,NNE,28,7.0,7.0,60,0.00,,,0.00,0,Wunderground v.1.15,2013-03-19 07:45:00,
2013-03-19 02:50:00,61.6,48.0,29.83,NE,35,6.0,6.0,61,0.00,,,0.00,0,Wunderground v.1.15,2013-03-19 07:50:00,
2013-03-19 02:55:00,61.5,47.9,29.83,NNE,32,5.0,6.0,61,0.00,,,0.00,0,Wunderground v.1.15,2013-03-19 07:55:00,
2013-03-19 03:00:00,61.4,47.8,29.83,NE,42,6.0,6.0,61,0.00,,,0.00,0,Wunderground v.1.15,2013-03-19 08:00:00,
2013-03-19 03:10:00,61.1,47.5,29.83,ENE,57,6.0,6.0,61,0.00,,,0.00,0,Wunderground v.1.15,2013-03-19 08:10:00,
2013-03-19 03:20:00,60.9,47.8,29.83,ENE,67,6.0,6.0,62,0.00,,,0.00,0,Wunderground v.1.15,2013-03-19 08:20:00,
2013-03-19 03:30:00,60.6,47.5,29.85,ENE,59,4.0,4.0,62,0.00,,,0.00,0,Wunderground v.1.15,2013-03-19 08:30:00,
2013-03-19 03:35:00,60.5,47.4,29.85,ENE,59,5.0,6.0,62,0.00,,,0.00,0,Wunderground v.1.15,2013-03-19 08:35:00,
2013-03-19 03:40:00,60.4,47.7,29.85,NE,55,5.0,9.0,63,0.00,,,0.00,0,Wunderground v.1.15,2013-03-19 08:40:00,
2013-03-19 07:45:00,55.7,47.2,29.88,NNE,26,1.0,2.0,73,0.00,,,0.00,9,Wunderground v.1.15,2013-03-19 12:45:00,
2013-03-19 07:50:00,55.7,47.2,29.88,NNE,27,2.0,2.0,73,0.00,,,0.00,14,Wunderground v.1.15,2013-03-19 12:50:00,
2013-03-19 07:55:00,55.6,47.1,29.88,NNE,28,2.0,2.0,73,0.00,,,0.00,18,Wunderground v.1.15,2013-03-19 12:55:00,
2013-03-19 08:00:00,55.6,47.4,29.88,NNE,27,1.0,1.0,74,0.00,,,0.00,23,Wunderground v.1.15,2013-03-19 13:00:00,
2013-03-19 08:10:00,55.6,47.4,29.88,NNE,28,1.0,3.0,74,0.00,,,0.00,35,Wunderground v.1.15,2013-03-19 13:10:00,
2013-03-19 08:15:00,55.8,48.0,29.89,NNE,28,2.0,3.0,75,0.00,,,0.00,39,Wunderground v.1.15,2013-03-19 13:15:00,
2013-03-19 08:20:00,56.0,48.2,29.89,NNE,26,2.0,2.0,75,0.00,,,0.00,40,Wunderground v.1.15,2013-03-19 13:20:00,
2013-03-19 08:25:00,56.2,48.4,29.89,NNE,27,2.0,2.0,75,0.00,,,0.00,44,Wunderground v.1.15,2013-03-19 13:25:00,
2013-03-19 08:30:00,56.5,48.7,29.89,NNE,28,2.0,2.0,75,0.00,,,0.00,49,Wunderground v.1.15,2013-03-19 13:30:00,
2013-03-19 08:35:00,56.8,49.0,29.89,NNE,27,2.0,4.0,75,0.00,,,0.00,77,Wunderground v.1.15,2013-03-19 13:35:00,
2013-03-19 08:40:00,57.2,49.0,29.89,NNE,30,2.0,2.0,74,0.00,,,0.00,84,Wunderground v.1.15,2013-03-19 13:40:00,
2013-03-19 08:45:00,57.7,49.5,29.90,NNE,26,2.0,4.0,74,0.00,,,0.00,83,Wunderground v.1.15,2013-03-19 13:45:00,
2013-03-19 08:50:00,58.4,49.8,29.90,NNE,32,3.0,5.0,73,0.00,,,0.00,93,Wunderground v.1.15,2013-03-19 13:50:00,
2013-03-19 09:00:00,59.2,49.8,29.89,NNE,30,4.0,4.0,71,0.00,,,0.00,135,Wunderground v.1.15,2013-03-19 14:00:00,
2013-03-19 09:10:00,60.7,50.9,29.89,NE,34,3.0,3.0,70,0.00,,,0.00,220,Wunderground v.1.15,2013-03-19 14:10:00,
2013-03-19 09:15:00,61.4,51.1,29.90,NE,41,3.0,3.0,69,0.00,,,0.00,188,Wunderground v.1.15,2013-03-19 14:15:00,
2013-03-19 09:20:00,62.0,51.7,29.90,NE,56,3.0,3.0,69,0.00,,,0.00,250,Wunderground v.1.15,2013-03-19 14:20:00,
2013-03-19 09:25:00,62.5,52.2,29.90,NE,54,3.0,3.0,69,0.00,,,0.00,220,Wunderground v.1.15,2013-03-19 14:25:00,
2013-03-19 09:35:00,64.3,53.9,29.90,ENE,69,3.0,6.0,69,0.00,,,0.00,193,Wunderground v.1.15,2013-03-19 14:35:00,
2013-03-19 09:40:00,64.2,53.4,29.90,ENE,68,3.0,3.0,68,0.00,,,0.00,227,Wunderground v.1.15,2013-03-19 14:40:00,
2013-03-19 09:45:00,65.0,55.0,29.91,ENE,74,3.0,5.0,70,0.00,,,0.00,188,Wunderground v.1.15,2013-03-19 14:45:00,
2013-03-19 09:50:00,65.3,55.3,29.91,East,79,3.0,3.0,70,0.00,,,0.00,183,Wunderground v.1.15,2013-03-19 14:50:00,
2013-03-19 09:55:00,65.9,55.8,29.91,East,82,4.0,4.0,70,0.00,,,0.00,200,Wunderground v.1.15,2013-03-19 14:55:00,
2013-03-19 10:00:00,66.2,55.7,29.90,ESE,116,5.0,7.0,69,0.00,,,0.00,341,Wunderground v.1.15,2013-03-19 15:00:00,
2013-03-19 10:05:00,66.6,55.7,29.90,ESE,111,6.0,7.0,68,0.00,,,0.00,288,Wunderground v.1.15,2013-03-19 15:05:00,
2013-03-19 10:10:00,66.9,56.4,29.90,ESE,123,5.0,5.0,69,0.00,,,0.00,369,Wunderground v.1.15,2013-03-19 15:10:00,
2013-03-19 10:15:00,67.6,56.7,29.91,East,82,4.0,8.0,68,0.00,,,0.00,213,Wunderground v.1.15,2013-03-19 15:15:00,
2013-03-19 10:20:00,67.6,56.7,29.91,East,99,5.0,5.0,68,0.00,,,0.00,515,Wunderground v.1.15,2013-03-19 15:20:00,
2013-03-19 10:25:00,68.0,57.0,29.91,East,82,6.0,6.0,68,0.00,,,0.00,531,Wunderground v.1.15,2013-03-19 15:25:00,
2013-03-19 10:30:00,68.3,57.3,29.90,East,82,5.0,5.0,68,0.00,,,0.00,550,Wunderground v.1.15,2013-03-19 15:30:00,
2013-03-19 10:35:00,69.0,58.0,29.90,ESE,117,5.0,5.0,68,0.00,,,0.00,564,Wunderground v.1.15,2013-03-19 15:35:00,
2013-03-19 10:40:00,69.1,57.7,29.90,ESE,117,4.0,4.0,67,0.00,,,0.00,578,Wunderground v.1.15,2013-03-19 15:40:00,
2013-03-19 10:45:00,69.6,57.3,29.90,ESE,117,4.0,4.0,65,0.00,,,0.00,592,Wunderground v.1.15,2013-03-19 15:45:00,
2013-03-19 10:50:00,70.3,58.0,29.90,SE,135,4.0,8.0,65,0.00,,,0.00,606,Wunderground v.1.15,2013-03-19 15:50:00,
2013-03-19 10:55:00,70.4,58.5,29.90,East,99,4.0,8.0,66,0.00,,,0.00,613,Wunderground v.1.15,2013-03-19 15:55:00,
2013-03-19 11:00:00,70.8,58.4,29.90,SE,134,5.0,6.0,65,0.00,,,0.00,633,Wunderground v.1.15,2013-03-19 16:00:00,
2013-03-19 11:06:00,71.3,58.9,29.90,ESE,117,5.0,6.0,65,0.00,,,0.00,647,Wunderground v.1.15,2013-03-19 16:06:00,
2013-03-19 11:10:00,71.4,59.0,29.90,East,94,4.0,4.0,65,0.00,,,0.00,652,Wunderground v.1.15,2013-03-19 16:10:00,
2013-03-19 11:15:00,71.6,58.8,29.90,SE,140,5.0,5.0,64,0.00,,,0.00,543,Wunderground v.1.15,2013-03-19 16:15:00,
2013-03-19 11:20:00,71.8,59.4,29.90,ESE,117,5.0,5.0,65,0.00,,,0.00,677,Wunderground v.1.15,2013-03-19 16:20:00,
2013-03-19 11:25:00,72.2,58.9,29.90,ESE,119,5.0,5.0,63,0.00,,,0.00,691,Wunderground v.1.15,2013-03-19 16:25:00,
2013-03-19 11:30:00,72.7,59.8,29.90,South,173,4.0,5.0,64,0.00,,,0.00,703,Wunderground v.1.15,2013-03-19 16:30:00,
2013-03-19 11:35:00,73.3,59.9,29.90,South,169,5.0,5.0,63,0.00,,,0.00,714,Wunderground v.1.15,2013-03-19 16:35:00,
2013-03-19 11:40:00,73.8,60.0,29.90,South,186,4.0,5.0,62,0.00,,,0.00,724,Wunderground v.1.15,2013-03-19 16:40:00,
2013-03-19 11:50:00,75.6,60.3,29.89,SE,128,4.0,4.0,59,0.00,,,0.00,742,Wunderground v.1.15,2013-03-19 16:50:00,
2013-03-19 11:55:00,75.8,60.9,29.89,South,171,4.0,5.0,60,0.00,,,0.00,751,Wunderground v.1.15,2013-03-19 16:55:00,
2013-03-19 12:00:00,76.6,61.2,29.89,South,176,5.0,6.0,59,0.00,,,0.00,754,Wunderground v.1.15,2013-03-19 17:00:00,
2013-03-19 12:06:00,76.4,61.5,29.89,South,171,6.0,10.0,60,0.00,,,0.00,772,Wunderground v.1.15,2013-03-19 17:06:00,
2013-03-19 12:15:00,76.9,62.0,29.89,SSE,165,6.0,7.0,60,0.00,,,0.00,768,Wunderground v.1.15,2013-03-19 17:15:00,
2013-03-19 12:20:00,77.6,62.6,29.89,ESE,123,5.0,8.0,60,0.00,,,0.00,796,Wunderground v.1.15,2013-03-19 17:20:00,
2013-03-19 12:25:00,77.4,62.9,29.89,South,169,6.0,9.0,61,0.00,,,0.00,814,Wunderground v.1.15,2013-03-19 17:25:00,
2013-03-19 12:30:00,77.5,63.0,29.88,SSE,167,7.0,11.0,61,0.00,,,0.00,793,Wunderground v.1.15,2013-03-19 17:30:00,
2013-03-19 12:35:00,78.0,63.0,29.88,ESE,119,9.0,11.0,60,0.00,,,0.00,812,Wunderground v.1.15,2013-03-19 17:35:00,
2013-03-19 12:45:00,78.8,63.3,29.87,SSE,163,8.0,9.0,59,0.00,,,0.00,814,Wunderground v.1.15,2013-03-19 17:45:00,
2013-03-19 12:55:00,78.2,62.7,29.87,SSW,193,8.0,12.0,59,0.00,,,0.00,823,Wunderground v.1.15,2013-03-19 17:55:00,
2013-03-19 13:00:00,78.7,63.6,29.86,SSE,165,8.0,8.0,60,0.00,,,0.00,821,Wunderground v.1.15,2013-03-19 18:00:00,
2013-03-19 13:10:00,79.6,63.5,29.86,SSE,165,11.0,11.0,58,0.00,,,0.00,826,Wunderground v.1.15,2013-03-19 18:10:00,
2013-03-19 13:20:00,79.6,64.0,29.85,South,178,8.0,8.0,59,0.00,,,0.00,805,Wunderground v.1.15,2013-03-19 18:20:00,
2013-03-19 13:25:00,79.5,62.9,29.85,SE,139,7.0,14.0,57,0.00,,,0.00,853,Wunderground v.1.15,2013-03-19 18:25:00,
2013-03-19 13:30:00,79.4,63.3,29.85,South,180,9.0,9.0,58,0.00,,,0.00,816,Wunderground v.1.15,2013-03-19 18:30:00,
2013-03-19 13:35:00,79.9,63.8,29.85,SE,130,9.0,13.0,58,0.00,,,0.00,856,Wunderground v.1.15,2013-03-19 18:35:00,
2013-03-19 13:40:00,79.9,63.8,29.85,ESE,123,10.0,13.0,58,0.00,,,0.00,870,Wunderground v.1.15,2013-03-19 18:40:00,
2013-03-19 13:45:00,79.8,64.7,29.84,South,173,11.0,13.0,60,0.00,,,0.00,824,Wunderground v.1.15,2013-03-19 18:45:00,
2013-03-19 13:50:00,80.3,65.1,29.84,SW,214,8.0,12.0,60,0.00,,,0.00,865,Wunderground v.1.15,2013-03-19 18:50:00,
2013-03-19 13:55:00,81.8,65.1,29.84,SE,129,7.0,12.0,57,0.00,,,0.00,879,Wunderground v.1.15,2013-03-19 18:55:00,
2013-03-19 14:00:00,81.7,65.0,29.83,SSE,147,7.0,7.0,57,0.00,,,0.00,872,Wunderground v.1.15,2013-03-19 19:00:00,
2013-03-19 14:06:00,81.5,64.8,29.83,SE,137,7.0,12.0,57,0.00,,,0.00,819,Wunderground v.1.15,2013-03-19 19:06:00,
2013-03-19 14:15:00,80.5,65.3,29.82,South,182,6.0,15.0,60,0.00,,,0.00,875,Wunderground v.1.15,2013-03-19 19:15:00,
2013-03-19 14:20:00,81.6,65.9,29.82,SSE,159,8.0,8.0,59,0.00,,,0.00,775,Wunderground v.1.15,2013-03-19 19:20:00,
2013-03-19 14:25:00,80.8,66.6,29.82,SE,136,8.0,8.0,62,0.00,,,0.00,914,Wunderground v.1.15,2013-03-19 19:25:00,
2013-03-19 14:30:00,80.4,65.7,29.81,SSE,147,7.0,7.0,61,0.00,,,0.00,807,Wunderground v.1.15,2013-03-19 19:30:00,
2013-03-19 14:35:00,80.3,66.1,29.81,South,175,8.0,10.0,62,0.00,,,0.00,847,Wunderground v.1.15,2013-03-19 19:35:00,
2013-03-19 14:40:00,80.8,66.1,29.81,SE,142,8.0,10.0,61,0.00,,,0.00,867,Wunderground v.1.15,2013-03-19 19:40:00,
2013-03-19 14:50:00,80.3,66.6,29.81,SSE,151,7.0,10.0,63,0.00,,,0.00,819,Wunderground v.1.15,2013-03-19 19:50:00,
2013-03-19 14:55:00,80.1,66.4,29.81,SSE,168,9.0,10.0,63,0.00,,,0.00,807,Wunderground v.1.15,2013-03-19 19:55:00,
2013-03-19 15:00:00,80.6,66.8,29.80,South,180,10.0,12.0,63,0.00,,,0.00,826,Wunderground v.1.15,2013-03-19 20:00:00,
2013-03-19 15:10:00,80.6,66.8,29.80,South,183,8.0,11.0,63,0.00,,,0.00,786,Wunderground v.1.15,2013-03-19 20:10:00,
2013-03-19 15:15:00,80.3,66.6,29.79,South,171,8.0,11.0,63,0.00,,,0.00,761,Wunderground v.1.15,2013-03-19 20:15:00,
2013-03-19 15:20:00,80.2,66.9,29.79,SE,132,8.0,8.0,64,0.00,,,0.00,742,Wunderground v.1.15,2013-03-19 20:20:00,
2013-03-19 15:25:00,79.8,66.5,29.79,SE,140,8.0,8.0,64,0.00,,,0.00,751,Wunderground v.1.15,2013-03-19 20:25:00,
2013-03-19 15:30:00,80.0,66.7,29.78,SSE,150,8.0,8.0,64,0.00,,,0.00,728,Wunderground v.1.15,2013-03-19 20:30:00,
2013-03-19 15:35:00,80.0,66.7,29.78,SE,140,7.0,10.0,64,0.00,,,0.00,742,Wunderground v.1.15,2013-03-19 20:35:00,
2013-03-19 15:40:00,80.4,66.2,29.78,SSE,148,7.0,10.0,62,0.00,,,0.00,687,Wunderground v.1.15,2013-03-19 20:40:00,
2013-03-19 15:45:00,79.3,66.1,29.77,SE,130,7.0,10.0,64,0.00,,,0.00,712,Wunderground v.1.15,2013-03-19 20:45:00,
2013-03-19 15:50:00,79.3,66.5,29.77,SE,145,8.0,12.0,65,0.00,,,0.00,578,Wunderground v.1.15,2013-03-19 20:50:00,
2013-03-19 16:00:00,78.9,66.1,29.76,ESE,117,8.0,8.0,65,0.00,,,0.00,629,Wunderground v.1.15,2013-03-19 21:00:00,
2013-03-19 16:10:00,79.5,66.3,29.76,SE,144,7.0,10.0,64,0.00,,,0.00,659,Wunderground v.1.15,2013-03-19 21:10:00,
2013-03-19 16:15:00,79.9,66.6,29.76,SE,145,8.0,10.0,64,0.00,,,0.00,594,Wunderground v.1.15,2013-03-19 21:15:00,
2013-03-19 16:20:00,80.0,66.3,29.76,ESE,115,7.0,7.0,63,0.00,,,0.00,538,Wunderground v.1.15,2013-03-19 21:20:00,
2013-03-19 16:25:00,80.0,66.3,29.76,South,183,6.0,7.0,63,0.00,,,0.00,540,Wunderground v.1.15,2013-03-19 21:25:00,
2013-03-19 16:30:00,80.1,65.4,29.75,SSE,159,6.0,6.0,61,0.00,,,0.00,533,Wunderground v.1.15,2013-03-19 21:30:00,
2013-03-19 16:35:00,79.8,66.1,29.75,SSE,156,7.0,7.0,63,0.00,,,0.00,606,Wunderground v.1.15,2013-03-19 21:35:00,
2013-03-19 16:40:00,79.7,65.5,29.75,SE,134,7.0,11.0,62,0.00,,,0.00,408,Wunderground v.1.15,2013-03-19 21:40:00,
2013-03-19 16:45:00,78.7,65.5,29.75,SE,130,8.0,11.0,64,0.00,,,0.00,302,Wunderground v.1.15,2013-03-19 21:45:00,
2013-03-19 16:50:00,78.7,65.5,29.75,SSE,153,7.0,9.0,64,0.00,,,0.00,332,Wunderground v.1.15,2013-03-19 21:50:00,
2013-03-19 16:55:00,79.4,66.6,29.75,SE,131,6.0,9.0,65,0.00,,,0.00,499,Wunderground v.1.15,2013-03-19 21:55:00,
2013-03-19 17:06:00,79.4,66.2,29.74,SE,126,4.0,7.0,64,0.00,,,0.00,304,Wunderground v.1.15,2013-03-19 22:06:00,
2013-03-19 17:15:00,79.0,65.3,29.73,ESE,115,4.0,6.0,63,0.00,,,0.00,364,Wunderground v.1.15,2013-03-19 22:15:00,
2013-03-19 17:20:00,78.8,65.1,29.73,ESE,117,5.0,5.0,63,0.00,,,0.00,533,Wunderground v.1.15,2013-03-19 22:20:00,
2013-03-19 17:30:00,78.9,65.7,29.73,SE,129,6.0,6.0,64,0.00,,,0.00,176,Wunderground v.1.15,2013-03-19 22:30:00,
2013-03-19 17:35:00,78.7,65.0,29.73,ESE,119,5.0,9.0,63,0.00,,,0.00,190,Wunderground v.1.15,2013-03-19 22:35:00,
2013-03-19 17:40:00,79.0,65.8,29.73,ESE,106,5.0,5.0,64,0.00,,,0.00,318,Wunderground v.1.15,2013-03-19 22:40:00,
2013-03-19 17:45:00,79.7,66.0,29.73,SE,128,4.0,5.0,63,0.00,,,0.00,299,Wunderground v.1.15,2013-03-19 22:45:00,
2013-03-19 17:50:00,79.4,65.7,29.73,ESE,121,3.0,4.0,63,0.00,,,0.00,302,Wunderground v.1.15,2013-03-19 22:50:00,
2013-03-19 17:55:00,78.9,65.2,29.73,East,90,4.0,4.0,63,0.00,,,0.00,178,Wunderground v.1.15,2013-03-19 22:55:00,
2013-03-19 18:00:00,78.7,65.5,29.72,SE,132,3.0,6.0,64,0.00,,,0.00,151,Wunderground v.1.15,2013-03-19 23:00:00,
2013-03-19 18:06:00,78.3,65.1,29.72,SE,129,4.0,6.0,64,0.00,,,0.00,221,Wunderground v.1.15,2013-03-19 23:06:00,
2013-03-19 18:15:00,78.8,65.6,29.72,ESE,123,5.0,5.0,64,0.00,,,0.00,151,Wunderground v.1.15,2013-03-19 23:15:00,
2013-03-19 18:20:00,78.4,65.2,29.72,ESE,117,6.0,6.0,64,0.00,,,0.00,111,Wunderground v.1.15,2013-03-19 23:20:00,
2013-03-19 18:25:00,78.0,65.3,29.72,ESE,118,5.0,6.0,65,0.00,,,0.00,95,Wunderground v.1.15,2013-03-19 23:25:00,
2013-03-19 18:30:00,77.5,64.8,29.72,SE,126,4.0,6.0,65,0.00,,,0.00,93,Wunderground v.1.15,2013-03-19 23:30:00,
2013-03-19 18:35:00,77.5,64.8,29.72,ESE,121,5.0,6.0,65,0.00,,,0.00,104,Wunderground v.1.15,2013-03-19 23:35:00,
2013-03-19 18:45:00,77.1,64.9,29.73,ESE,102,5.0,6.0,66,0.00,,,0.00,74,Wunderground v.1.15,2013-03-19 23:45:00,
2013-03-19 18:50:00,77.1,65.3,29.73,ESE,118,4.0,5.0,67,0.00,,,0.00,70,Wunderground v.1.15,2013-03-19 23:50:00,
2013-03-19 18:55:00,77.1,64.9,29.73,ESE,117,5.0,8.0,66,0.00,,,0.00,54,Wunderground v.1.15,2013-03-19 23:55:00,
2013-03-19 19:00:00,77.0,64.8,29.73,ESE,113,5.0,5.0,66,0.00,,,0.00,42,Wunderground v.1.15,2013-03-20 00:00:00,
2013-03-19 19:10:00,76.9,64.7,29.73,SE,133,3.0,3.0,66,0.00,,,0.00,30,Wunderground v.1.15,2013-03-20 00:10:00,
2013-03-19 19:15:00,76.8,64.6,29.74,ESE,107,3.0,3.0,66,0.00,,,0.00,25,Wunderground v.1.15,2013-03-20 00:15:00,
2013-03-19 19:20:00,76.7,64.9,29.74,East,94,3.0,3.0,67,0.00,,,0.00,23,Wunderground v.1.15,2013-03-20 00:20:00,
2013-03-19 19:25:00,76.6,64.8,29.74,East,92,3.0,4.0,67,0.00,,,0.00,18,Wunderground v.1.15,2013-03-20 00:25:00,
2013-03-19 19:30:00,76.5,64.7,29.75,East,92,2.0,2.0,67,0.00,,,0.00,11,Wunderground v.1.15,2013-03-20 00:30:00,
2013-03-19 19:35:00,76.4,65.1,29.75,East,92,1.0,3.0,68,0.00,,,0.00,7,Wunderground v.1.15,2013-03-20 00:35:00,
2013-03-19 19:40:00,76.2,64.9,29.75,East,92,1.0,2.0,68,0.00,,,0.00,0,Wunderground v.1.15,2013-03-20 00:40:00,
2013-03-19 19:45:00,76.1,64.8,29.76,East,91,2.0,2.0,68,0.00,,,0.00,0,Wunderground v.1.15,2013-03-20 00:45:00,
2013-03-19 19:50:00,76.0,64.7,29.76,East,91,2.0,2.0,68,0.00,,,0.00,0,Wunderground v.1.15,2013-03-20 00:50:00,
2013-03-19 19:55:00,75.8,64.5,29.76,East,91,2.0,2.0,68,0.00,,,0.00,0,Wunderground v.1.15,2013-03-20 00:55:00,
2013-03-19 20:00:00,75.7,64.8,29.76,East,92,2.0,2.0,69,0.00,,,0.00,0,Wunderground v.1.15,2013-03-20 01:00:00,
2013-03-19 20:10:00,75.4,64.9,29.76,ENE,60,3.0,3.0,70,0.00,,,0.00,0,Wunderground v.1.15,2013-03-20 01:10:00,
2013-03-19 20:15:00,75.3,64.8,29.76,ENE,67,3.0,5.0,70,0.00,,,0.00,0,Wunderground v.1.15,2013-03-20 01:15:00,
2013-03-19 20:20:00,75.2,65.1,29.76,ENE,62,3.0,6.0,71,0.00,,,0.00,0,Wunderground v.1.15,2013-03-20 01:20:00,
2013-03-19 20:25:00,75.1,65.1,29.76,ENE,62,3.0,6.0,71,0.00,,,0.00,0,Wunderground v.1.15,2013-03-20 01:25:00,
2013-03-19 20:30:00,75.0,65.0,29.77,ENE,61,3.0,3.0,71,0.00,,,0.00,0,Wunderground v.1.15,2013-03-20 01:30:00,
2013-03-19 20:35:00,74.9,64.9,29.77,ENE,60,3.0,3.0,71,0.00,,,0.00,0,Wunderground v.1.15,2013-03-20 01:35:00,
2013-03-19 20:40:00,74.8,64.8,29.77,ENE,58,3.0,3.0,71,0.00,,,0.00,0,Wunderground v.1.15,2013-03-20 01:40:00,
2013-03-19 20:50:00,74.5,64.9,29.77,ENE,62,4.0,5.0,72,0.00,,,0.00,0,Wunderground v.1.15,2013-03-20 01:50:00,
2013-03-19 21:00:00,74.2,64.6,29.77,ENE,66,4.0,5.0,72,0.00,,,0.00,0,Wunderground v.1.15,2013-03-20 02:00:00,
2013-03-19 21:10:00,74.0,64.4,29.77,NE,47,4.0,5.0,72,0.00,,,0.00,0,Wunderground v.1.15,2013-03-20 02:10:00,
2013-03-19 21:15:00,73.9,64.3,29.77,ENE,69,5.0,6.0,72,0.00,,,0.00,0,Wunderground v.1.15,2013-03-20 02:15:00,
2013-03-19 21:20:00,73.8,64.2,29.77,ENE,64,4.0,9.0,72,0.00,,,0.00,0,Wunderground v.1.15,2013-03-20 02:20:00,
2013-03-19 21:25:00,73.7,64.1,29.77,ENE,60,4.0,12.0,72,0.00,,,0.00,0,Wunderground v.1.15,2013-03-20 02:25:00,
2013-03-19 21:30:00,73.6,64.0,29.78,NE,55,4.0,5.0,72,0.00,,,0.00,0,Wunderground v.1.15,2013-03-20 02:30:00,
2013-03-19 21:35:00,73.5,63.9,29.78,NE,43,5.0,5.0,72,0.00,,,0.00,0,Wunderground v.1.15,2013-03-20 02:35:00,
2013-03-19 21:40:00,73.4,63.8,29.78,NE,54,5.0,7.0,72,0.00,,,0.00,0,Wunderground v.1.15,2013-03-20 02:40:00,
2013-03-19 21:45:00,73.3,63.7,29.79,NE,51,5.0,7.0,72,0.00,,,0.00,0,Wunderground v.1.15,2013-03-20 02:45:00,
2013-03-19 21:50:00,73.3,63.7,29.79,ENE,59,5.0,5.0,72,0.00,,,0.00,0,Wunderground v.1.15,2013-03-20 02:50:00,
2013-03-19 21:55:00,73.2,63.6,29.79,ENE,59,5.0,7.0,72,0.00,,,0.00,0,Wunderground v.1.15,2013-03-20 02:55:00,
2013-03-19 22:06:00,73.1,63.1,29.80,ENE,63,5.0,5.0,71,0.00,,,0.00,0,Wunderground v.1.15,2013-03-20 03:06:00,
2013-03-19 22:10:00,73.1,63.1,29.80,NE,56,5.0,7.0,71,0.00,,,0.00,0,Wunderground v.1.15,2013-03-20 03:10:00,
2013-03-19 22:15:00,73.0,63.0,29.80,NNE,30,6.0,7.0,71,0.00,,,0.00,0,Wunderground v.1.15,2013-03-20 03:15:00,
2013-03-19 22:20:00,73.0,63.0,29.80,NE,48,6.0,6.0,71,0.00,,,0.00,0,Wunderground v.1.15,2013-03-20 03:20:00,
2013-03-19 22:25:00,73.0,63.0,29.80,ENE,59,5.0,6.0,71,0.00,,,0.00,0,Wunderground v.1.15,2013-03-20 03:25:00,
2013-03-19 22:30:00,72.9,62.9,29.80,ENE,67,4.0,4.0,71,0.00,,,0.00,0,Wunderground v.1.15,2013-03-20 03:30:00,
2013-03-19 22:35:00,72.8,62.8,29.80,ENE,66,4.0,4.0,71,0.00,,,0.00,0,Wunderground v.1.15,2013-03-20 03:35:00,
2013-03-19 22:40:00,72.8,62.8,29.80,ENE,63,4.0,4.0,71,0.00,,,0.00,0,Wunderground v.1.15,2013-03-20 03:40:00,
2013-03-19 22:50:00,72.5,62.6,29.80,ENE,74,4.0,5.0,71,0.00,,,0.00,0,Wunderground v.1.15,2013-03-20 03:50:00,
2013-03-19 22:55:00,72.4,62.5,29.80,ENE,75,4.0,5.0,71,0.00,,,0.00,0,Wunderground v.1.15,2013-03-20 03:55:00,
2013-03-19 23:00:00,72.2,62.7,29.81,ENE,78,4.0,4.0,72,0.00,,,0.00,0,Wunderground v.1.15,2013-03-20 04:00:00,
2013-03-19 23:10:00,71.9,62.8,29.81,East,92,4.0,4.0,73,0.00,,,0.00,0,Wunderground v.1.15,2013-03-20 04:10:00,
2013-03-19 23:20:00,71.6,63.3,29.81,East,94,5.0,5.0,75,0.00,,,0.00,0,Wunderground v.1.15,2013-03-20 04:20:00,
2013-03-19 23:30:00,71.3,63.3,29.82,East,97,4.0,5.0,76,0.00,,,0.00,0,Wunderground v.1.15,2013-03-20 04:30:00,
2013-03-19 23:35:00,71.3,64.1,29.82,ESE,108,5.0,5.0,78,0.00,,,0.00,0,Wunderground v.1.15,2013-03-20 04:35:00,
2013-03-19 23:40:00,71.1,64.3,29.82,East,90,4.0,4.0,79,0.00,,,0.00,0,Wunderground v.1.15,2013-03-20 04:40:00,
2013-03-19 23:45:00,71.0,64.5,29.83,ENE,71,4.0,4.0,80,0.00,,,0.00,0,Wunderground v.1.15,2013-03-20 04:45:00,
2013-03-19 23:50:00,70.8,64.3,29.83,East,89,3.0,3.0,80,0.00,,,0.00,0,Wunderground v.1.15,2013-03-20 04:50:00,